Time;durP1;ratioP1;P1;durP2;ratioP2;P2;SDS_P1;SDS_P2;PMS_P1;PMS_P2;Temp;Humidity;BMP_temperature;BMP_pressure;BME280_temperature;BME280_humidity;BME280_pressure;Samples;Min_cycle;Max_cycle;Signal;HPM_P1;HPM_P2
2023/04/15 00:01:59;;;;;;;10.25;3.85;;;;;;;7.74;100.00;100668.66;6278624;28;20476;-75
2023/04/15 00:05:01;;;;;;;7.15;3.75;;;;;;;7.74;100.00;100666.06;6278681;28;20045;-75
2023/04/15 00:08:04;;;;;;;8.63;3.90;;;;;;;7.68;100.00;100671.56;6278554;28;20053;-75
2023/04/15 00:11:05;;;;;;;5.72;3.10;;;;;;;7.74;100.00;100663.44;6278625;28;20055;-75
2023/04/15 00:14:07;;;;;;;5.70;2.92;;;;;;;7.73;100.00;100660.91;6278289;28;20041;-75
2023/04/15 00:17:08;;;;;;;6.47;3.53;;;;;;;7.72;100.00;100651.31;6278723;28;20053;-75
2023/04/15 00:20:10;;;;;;;8.30;3.67;;;;;;;7.78;100.00;100653.69;6278423;28;20430;-75
2023/04/15 00:23:13;;;;;;;8.23;3.40;;;;;;;7.79;100.00;100644.94;6278322;28;20429;-76
2023/04/15 00:26:14;;;;;;;4.40;2.90;;;;;;;7.86;100.00;100641.16;6278177;28;20052;-76
2023/04/15 00:29:16;;;;;;;10.38;3.70;;;;;;;7.85;100.00;100648.13;6278507;28;20468;-76
2023/04/15 00:32:17;;;;;;;5.35;3.28;;;;;;;7.87;100.00;100645.44;6277648;28;20468;-76
2023/04/15 00:35:18;;;;;;;6.72;3.42;;;;;;;7.96;100.00;100654.66;6277569;28;20472;-75
2023/04/15 00:38:21;;;;;;;7.60;3.50;;;;;;;7.89;100.00;100652.31;6278106;28;20434;-76
2023/04/15 00:41:23;;;;;;;6.32;3.47;;;;;;;7.83;100.00;100651.72;6277421;28;20072;-76
2023/04/15 00:44:24;;;;;;;6.45;4.05;;;;;;;7.81;100.00;100654.41;6278001;28;20045;-76
2023/04/15 00:47:29;;;;;;;6.85;3.38;;;;;;;7.86;100.00;100657.69;6277584;28;20049;-76
2023/04/15 00:50:30;;;;;;;9.25;3.88;;;;;;;7.86;100.00;100649.84;6278401;28;20102;-75
2023/04/15 00:53:33;;;;;;;8.98;4.50;;;;;;;7.87;100.00;100648.91;6277551;28;20037;-76
2023/04/15 00:56:36;;;;;;;7.70;4.03;;;;;;;7.87;100.00;100650.69;6277216;28;20049;-75
2023/04/15 00:59:38;;;;;;;6.80;3.55;;;;;;;7.84;100.00;100653.41;6276861;28;20330;-76
2023/04/15 01:02:39;;;;;;;7.00;3.67;;;;;;;7.84;100.00;100649.03;6277472;28;20041;-76
2023/04/15 01:05:41;;;;;;;6.65;3.63;;;;;;;7.85;100.00;100642.03;6277480;28;20045;-76
2023/04/15 01:08:45;;;;;;;11.30;3.97;;;;;;;7.82;100.00;100639.56;6276958;28;20069;-76
2023/04/15 01:11:46;;;;;;;8.48;3.45;;;;;;;7.83;100.00;100638.66;6277320;28;20055;-75
2023/04/15 01:14:48;;;;;;;7.28;3.88;;;;;;;7.85;100.00;100632.41;6277298;28;20052;-76
2023/04/15 01:17:50;;;;;;;7.10;3.55;;;;;;;7.86;100.00;100638.53;6277168;28;20060;-75
2023/04/15 01:20:51;;;;;;;10.52;4.38;;;;;;;7.82;100.00;100626.50;6272809;28;20046;-76
2023/04/15 01:23:57;;;;;;;12.95;4.82;;;;;;;7.88;100.00;100620.97;6269002;28;20045;-76
2023/04/15 01:26:59;;;;;;;10.98;4.72;;;;;;;7.80;100.00;100620.47;6276691;28;20048;-75
2023/04/15 01:30:02;;;;;;;7.55;4.05;;;;;;;7.73;100.00;100626.91;6269220;28;20049;-75
2023/04/15 01:33:03;;;;;;;7.60;3.80;;;;;;;7.76;100.00;100621.50;6275773;28;20044;-75
2023/04/15 01:36:07;;;;;;;8.35;3.78;;;;;;;7.83;100.00;100622.94;6276858;28;20048;-76
2023/04/15 01:39:08;;;;;;;9.45;4.65;;;;;;;7.87;100.00;100620.13;6276212;28;20056;-76
2023/04/15 01:42:11;;;;;;;11.77;4.97;;;;;;;7.92;100.00;100617.31;6276747;28;20429;-76
2023/04/15 01:45:13;;;;;;;10.90;4.57;;;;;;;7.79;100.00;100621.38;6276405;28;20045;-75
2023/04/15 01:48:15;;;;;;;9.30;4.75;;;;;;;7.77;100.00;100621.47;6276471;28;20160;-76
2023/04/15 01:51:17;;;;;;;12.52;4.93;;;;;;;7.76;100.00;100616.28;6276395;28;20132;-75
2023/04/15 01:54:18;;;;;;;9.45;4.82;;;;;;;7.72;100.00;100614.72;6275956;28;20056;-76
2023/04/15 01:57:21;;;;;;;9.77;4.53;;;;;;;7.64;100.00;100617.69;6276138;28;20429;-76
2023/04/15 02:00:22;;;;;;;12.25;5.15;;;;;;;7.58;100.00;100623.16;6276035;28;20049;-76
2023/04/15 02:03:24;;;;;;;15.55;4.68;;;;;;;7.59;100.00;100623.09;6275708;28;20132;-75
2023/04/15 02:06:27;;;;;;;10.95;5.07;;;;;;;7.54;100.00;100614.63;6275812;28;20080;-76
2023/04/15 02:09:28;;;;;;;10.40;4.55;;;;;;;7.53;100.00;100614.66;6275392;28;20159;-75
2023/04/15 02:12:31;;;;;;;11.85;5.57;;;;;;;7.61;100.00;100621.25;6275924;28;20041;-76
2023/04/15 02:15:33;;;;;;;10.70;5.55;;;;;;;7.54;100.00;100612.00;6275802;28;20045;-76
2023/04/15 02:18:34;;;;;;;13.95;6.72;;;;;;;7.48;100.00;100611.41;6275503;28;20041;-75
2023/04/15 02:21:35;;;;;;;14.70;6.68;;;;;;;7.52;100.00;100615.56;6275828;28;20056;-76
2023/04/15 02:24:37;;;;;;;12.07;5.07;;;;;;;7.51;100.00;100612.13;6275474;28;20350;-76
2023/04/15 02:27:40;;;;;;;12.30;5.93;;;;;;;7.54;100.00;100611.13;6275007;28;20045;-75
2023/04/15 02:30:41;;;;;;;11.35;5.72;;;;;;;7.55;100.00;100610.22;6275721;28;20045;-76
2023/04/15 02:33:42;;;;;;;10.80;5.18;;;;;;;7.57;100.00;100606.63;6269037;28;20053;-76
2023/04/15 02:36:45;;;;;;;15.30;5.53;;;;;;;7.51;100.00;100612.13;6250980;28;20049;-75
2023/04/15 02:39:47;;;;;;;16.05;7.07;;;;;;;7.53;100.00;100619.88;6250724;28;20061;-76
2023/04/15 02:42:49;;;;;;;15.13;6.35;;;;;;;7.54;100.00;100614.63;6272445;28;20132;-76
2023/04/15 02:45:51;;;;;;;12.15;5.97;;;;;;;7.45;100.00;100625.47;6275270;28;20045;-76
2023/04/15 02:48:53;;;;;;;13.23;5.85;;;;;;;7.49;100.00;100618.31;6274394;28;20052;-76
2023/04/15 02:51:54;;;;;;;14.20;6.00;;;;;;;7.40;100.00;100606.47;6275069;28;20131;-76
2023/04/15 02:54:59;;;;;;;12.15;6.20;;;;;;;7.37;100.00;100609.25;6274800;28;20641;-76
2023/04/15 02:58:02;;;;;;;16.95;6.88;;;;;;;7.36;100.00;100608.41;6274936;28;20056;-76
2023/04/15 03:01:03;;;;;;;12.90;6.88;;;;;;;7.40;100.00;100609.09;6274867;28;20060;-76
2023/04/15 03:04:06;;;;;;;16.75;7.10;;;;;;;7.36;100.00;100610.16;6274763;28;20056;-76
2023/04/15 03:07:07;;;;;;;13.20;6.28;;;;;;;7.37;100.00;100607.47;6265631;28;20049;-76
2023/04/15 03:10:10;;;;;;;13.43;5.63;;;;;;;7.37;100.00;100611.88;6261164;28;20049;-76
2023/04/15 03:13:13;;;;;;;14.32;6.05;;;;;;;7.36;100.00;100607.56;6268848;28;20052;-76
2023/04/15 03:16:15;;;;;;;13.23;6.45;;;;;;;7.27;100.00;100616.63;6269988;28;20057;-75
2023/04/15 03:19:16;;;;;;;14.13;6.40;;;;;;;7.36;100.00;100615.41;6274247;28;20361;-76
2023/04/15 03:22:17;;;;;;;18.52;6.30;;;;;;;7.37;100.00;100610.09;6279311;28;20135;-76
2023/04/15 03:25:19;;;;;;;13.40;5.85;;;;;;;7.49;100.00;100611.31;6271640;28;20053;-76
2023/04/15 03:28:21;;;;;;;17.15;5.95;;;;;;;7.44;100.00;100617.66;6274272;28;20045;-76
2023/04/15 03:31:24;;;;;;;14.63;7.05;;;;;;;7.41;100.00;100616.06;6267676;28;20045;-76
2023/04/15 03:34:25;;;;;;;15.23;7.03;;;;;;;7.47;100.00;100620.16;6276814;28;20041;-76
2023/04/15 03:37:26;;;;;;;16.65;6.68;;;;;;;7.45;100.00;100624.59;6271301;28;20049;-75
2023/04/15 03:40:28;;;;;;;12.55;6.25;;;;;;;7.41;100.00;100629.13;6275403;28;20080;-75
2023/04/15 03:43:30;;;;;;;13.93;7.00;;;;;;;7.38;100.00;100630.09;6272181;28;20045;-75
2023/04/15 03:46:32;;;;;;;14.45;6.68;;;;;;;7.36;100.00;100618.84;6270281;28;20041;-75
2023/04/15 03:49:33;;;;;;;15.88;6.15;;;;;;;7.35;100.00;100624.13;6272108;28;20448;-76
2023/04/15 03:52:35;;;;;;;15.13;6.15;;;;;;;7.30;100.00;100616.47;6273734;28;20052;-75
2023/04/15 03:55:36;;;;;;;16.63;6.60;;;;;;;7.19;100.00;100621.31;6274241;28;20393;-75
2023/04/15 03:58:39;;;;;;;11.52;5.88;;;;;;;7.13;100.00;100621.59;6272179;28;20349;-75
2023/04/15 04:01:40;;;;;;;13.38;6.15;;;;;;;7.26;100.00;100625.34;6271914;28;20041;-76
2023/04/15 04:04:42;;;;;;;12.05;6.10;;;;;;;7.21;100.00;100627.31;6271348;28;20044;-76
2023/04/15 04:07:43;;;;;;;16.20;6.20;;;;;;;7.23;100.00;100628.13;6272248;28;20048;-76
2023/04/15 04:10:45;;;;;;;13.52;6.35;;;;;;;7.27;100.00;100626.25;6260122;28;20578;-76
2023/04/15 04:13:48;;;;;;;15.98;7.20;;;;;;;7.22;100.00;100618.59;6265653;28;20049;-76
2023/04/15 04:16:49;;;;;;;11.80;5.80;;;;;;;7.23;100.00;100632.50;6263445;28;20045;-76
2023/04/15 04:19:51;;;;;;;13.90;5.93;;;;;;;7.25;100.00;100628.91;6269316;28;20045;-76
2023/04/15 04:22:52;;;;;;;13.00;6.45;;;;;;;7.24;100.00;100629.81;6271599;28;20129;-76
2023/04/15 04:25:53;;;;;;;15.13;6.22;;;;;;;7.19;100.00;100623.09;6271409;28;20052;-76
2023/04/15 04:28:56;;;;;;;14.23;6.30;;;;;;;7.22;100.00;100623.81;6268059;28;20048;-76
2023/04/15 04:31:57;;;;;;;13.77;5.78;;;;;;;7.18;100.00;100624.00;6265982;28;20048;-76
2023/04/15 04:34:59;;;;;;;13.43;5.75;;;;;;;7.20;100.00;100627.38;6274239;28;20044;-76
2023/04/15 04:38:00;;;;;;;11.23;5.45;;;;;;;7.12;100.00;100633.78;6278028;28;20467;-76
2023/04/15 04:41:02;;;;;;;11.73;5.22;;;;;;;7.11;100.00;100644.28;6277939;28;20057;-76
2023/04/15 04:44:04;;;;;;;18.25;6.43;;;;;;;7.04;100.00;100635.00;6278116;28;20052;-75
2023/04/15 04:47:06;;;;;;;14.73;5.30;;;;;;;7.23;100.00;100638.56;6277164;28;20045;-75
2023/04/15 04:50:09;;;;;;;9.93;4.70;;;;;;;7.20;100.00;100633.47;6277855;28;20449;-76
2023/04/15 04:53:10;;;;;;;14.40;5.68;;;;;;;7.14;100.00;100640.72;6269705;28;20092;-76
2023/04/15 04:56:12;;;;;;;14.30;5.38;;;;;;;7.08;100.00;100629.56;6277410;28;20456;-76
2023/04/15 04:59:14;;;;;;;15.00;6.55;;;;;;;7.16;100.00;100638.88;6277553;28;20049;-76
2023/04/15 05:02:16;;;;;;;10.15;5.25;;;;;;;7.10;100.00;100638.22;6277862;28;20049;-76
2023/04/15 05:05:17;;;;;;;13.65;5.57;;;;;;;7.05;100.00;100636.72;6277078;28;20048;-76
2023/04/15 05:08:19;;;;;;;15.30;5.20;;;;;;;7.03;100.00;100634.16;6277316;28;20045;-76
2023/04/15 05:11:20;;;;;;;17.42;5.53;;;;;;;7.00;100.00;100638.66;6277275;28;20047;-77
2023/04/15 05:14:23;;;;;;;8.40;4.45;;;;;;;6.98;100.00;100643.94;6276843;28;20049;-77
2023/04/15 05:17:24;;;;;;;16.35;6.03;;;;;;;6.94;100.00;100631.06;6276656;28;20053;-76
2023/04/15 05:20:25;;;;;;;12.95;4.68;;;;;;;6.88;100.00;100640.00;6276702;28;20049;-75
2023/04/15 05:23:27;;;;;;;12.32;5.63;;;;;;;6.91;100.00;100634.66;6276973;28;20064;-76
2023/04/15 05:26:28;;;;;;;12.35;5.20;;;;;;;6.97;100.00;100634.41;6276715;28;20049;-76
2023/04/15 05:29:31;;;;;;;11.95;5.70;;;;;;;6.91;100.00;100639.88;6276651;28;20076;-76
2023/04/15 05:32:32;;;;;;;12.50;6.00;;;;;;;6.93;100.00;100635.44;6276530;28;20059;-76
2023/04/15 05:35:34;;;;;;;11.75;5.88;;;;;;;7.01;100.00;100643.81;6276738;28;20037;-76
2023/04/15 05:38:36;;;;;;;13.60;6.38;;;;;;;7.02;100.00;100642.06;6276453;28;20048;-76
2023/04/15 05:41:37;;;;;;;13.35;6.03;;;;;;;6.99;100.00;100637.78;6276758;28;20053;-77
2023/04/15 05:44:40;;;;;;;12.15;5.68;;;;;;;6.97;100.00;100646.63;6275248;28;20131;-76
2023/04/15 05:47:41;;;;;;;12.68;6.55;;;;;;;6.97;100.00;100646.63;6276090;28;20080;-75
2023/04/15 05:50:43;;;;;;;15.93;6.70;;;;;;;6.90;100.00;100653.84;6276325;28;20049;-76
2023/04/15 05:53:44;;;;;;;13.90;6.05;;;;;;;6.93;100.00;100650.25;6275833;28;20056;-77
2023/04/15 05:56:46;;;;;;;13.82;5.82;;;;;;;6.97;100.00;100650.06;6276168;28;20124;-76
2023/04/15 05:59:51;;;;;;;15.07;6.68;;;;;;;7.05;100.00;100657.63;6276109;28;20049;-77
2023/04/15 06:02:52;;;;;;;15.60;6.50;;;;;;;7.05;100.00;100653.25;6275903;28;20075;-77
2023/04/15 06:05:54;;;;;;;15.98;8.07;;;;;;;7.02;100.00;100657.72;6275964;28;20053;-77
2023/04/15 06:08:56;;;;;;;14.80;6.72;;;;;;;7.07;100.00;100661.84;6275818;28;20063;-77
2023/04/15 06:11:58;;;;;;;14.98;6.82;;;;;;;7.06;100.00;100660.16;6275723;28;20357;-77
2023/04/15 06:15:01;;;;;;;12.63;6.38;;;;;;;7.08;100.00;100663.53;6275035;28;20048;-78
2023/04/15 06:18:02;;;;;;;16.85;6.40;;;;;;;6.99;100.00;100670.91;6275556;28;20053;-78
2023/04/15 06:21:04;;;;;;;13.07;6.28;;;;;;;7.00;100.00;100668.25;6275650;28;20428;-78
2023/04/15 06:24:06;;;;;;;10.75;5.65;;;;;;;6.92;100.00;100672.06;6275503;28;20055;-78
2023/04/15 06:27:08;;;;;;;13.77;5.82;;;;;;;6.92;100.00;100672.94;6275150;28;20049;-78
2023/04/15 06:30:11;;;;;;;13.27;6.70;;;;;;;6.96;100.00;100674.50;6267524;28;20049;-78
2023/04/15 06:33:13;;;;;;;11.50;5.32;;;;;;;6.87;100.00;100674.88;6275308;28;20045;-78
2023/04/15 06:36:14;;;;;;;11.27;5.60;;;;;;;6.93;100.00;100671.16;6275155;28;20053;-77
2023/04/15 06:39:15;;;;;;;10.40;5.15;;;;;;;6.96;100.00;100673.66;6275009;28;20060;-78
2023/04/15 06:42:17;;;;;;;11.43;4.85;;;;;;;7.04;100.00;100682.91;6275505;28;20055;-78
2023/04/15 06:45:20;;;;;;;8.02;4.35;;;;;;;7.05;100.00;100671.53;6274913;28;20041;-78
2023/04/15 06:48:22;;;;;;;10.70;5.45;;;;;;;7.03;100.00;100665.50;6275035;28;20072;-78
2023/04/15 06:51:23;;;;;;;11.73;4.38;;;;;;;7.04;100.00;100667.22;6275247;28;20456;-78
2023/04/15 06:54:25;;;;;;;8.23;4.45;;;;;;;7.08;100.00;100657.47;6274844;28;20485;-78
2023/04/15 06:57:27;;;;;;;13.10;4.68;;;;;;;7.11;100.00;100662.59;6274897;28;20045;-78
2023/04/15 07:00:32;;;;;;;9.95;4.85;;;;;;;7.09;100.00;100654.81;6274771;28;20063;-78
2023/04/15 07:03:34;;;;;;;9.90;4.05;;;;;;;7.12;100.00;100656.44;6275153;28;20437;-78
2023/04/15 07:06:35;;;;;;;12.00;5.15;;;;;;;7.07;100.00;100661.00;6274814;28;20334;-78
2023/04/15 07:09:37;;;;;;;10.05;4.93;;;;;;;6.96;100.00;100655.38;6273718;28;20068;-78
2023/04/15 07:12:38;;;;;;;11.80;4.65;;;;;;;7.05;100.00;100652.41;6270774;28;20337;-78
2023/04/15 07:15:41;;;;;;;12.05;5.65;;;;;;;7.09;100.00;100661.81;6274345;28;20037;-78
2023/04/15 07:18:42;;;;;;;10.07;4.88;;;;;;;7.09;100.00;100662.66;6274069;28;20045;-78
2023/04/15 07:21:44;;;;;;;9.60;4.68;;;;;;;7.08;100.00;100665.31;6274556;28;20045;-78
2023/04/15 07:24:46;;;;;;;10.85;4.93;;;;;;;7.05;100.00;100660.22;6273763;28;20099;-78
2023/04/15 07:27:47;;;;;;;11.98;4.70;;;;;;;7.05;100.00;100673.28;6271972;28;20044;-78
2023/04/15 07:30:50;;;;;;;10.07;5.05;;;;;;;7.07;100.00;100674.91;6273897;28;20056;-78
2023/04/15 07:33:52;;;;;;;9.38;4.47;;;;;;;7.07;100.00;100680.16;6273802;28;20110;-79
2023/04/15 07:36:53;;;;;;;9.18;4.85;;;;;;;7.08;100.00;100681.84;6264356;28;20190;-78
2023/04/15 07:39:54;;;;;;;11.30;4.88;;;;;;;7.13;100.00;100684.31;6270105;28;20053;-78
2023/04/15 07:42:57;;;;;;;11.30;5.15;;;;;;;7.16;100.00;100686.78;6273863;28;20075;-78
2023/04/15 07:46:00;;;;;;;13.52;4.75;;;;;;;7.20;100.00;100682.28;6267734;28;20078;-78
2023/04/15 07:49:01;;;;;;;11.40;4.20;;;;;;;7.22;100.00;100677.81;6270872;28;20391;-78
2023/04/15 07:52:03;;;;;;;8.85;4.35;;;;;;;7.22;100.00;100677.81;6271557;28;20049;-78
2023/04/15 07:55:05;;;;;;;9.27;4.07;;;;;;;7.22;100.00;100689.16;6267704;28;20049;-79
2023/04/15 07:58:07;;;;;;;10.93;5.25;;;;;;;7.20;100.00;100690.13;6274007;28;20048;-78
2023/04/15 08:01:10;;;;;;;8.07;4.25;;;;;;;7.20;100.00;100683.13;6274650;28;20064;-78
2023/04/15 08:04:11;;;;;;;13.75;4.88;;;;;;;7.25;100.00;100694.25;6274373;28;20057;-78
2023/04/15 08:07:13;;;;;;;10.65;4.05;;;;;;;7.26;100.00;100692.47;6276512;28;20055;-79
2023/04/15 08:10:15;;;;;;;7.03;3.42;;;;;;;7.27;100.00;100697.66;6279011;28;20048;-79
2023/04/15 08:13:16;;;;;;;9.13;3.53;;;;;;;7.23;100.00;100684.78;6278751;28;20052;-78
2023/04/15 08:16:20;;;;;;;10.20;3.60;;;;;;;7.26;100.00;100684.63;6278479;28;20052;-79
2023/04/15 08:19:21;;;;;;;5.78;2.88;;;;;;;7.28;100.00;100690.66;6278543;28;20052;-78
2023/04/15 08:22:23;;;;;;;8.15;3.85;;;;;;;7.35;100.00;100706.00;6270676;28;20080;-79
2023/04/15 08:25:24;;;;;;;7.60;3.58;;;;;;;7.33;100.00;100699.16;6278332;28;20588;-78
2023/04/15 08:28:26;;;;;;;6.93;3.28;;;;;;;7.41;100.00;100693.63;6278036;28;20353;-78
2023/04/15 08:31:29;;;;;;;6.68;3.90;;;;;;;7.45;100.00;100706.50;6278263;28;20049;-78
2023/04/15 08:34:31;;;;;;;5.13;2.97;;;;;;;7.44;100.00;100711.78;6277619;28;20445;-78
2023/04/15 08:37:32;;;;;;;6.75;4.00;;;;;;;7.51;100.00;100710.63;6277531;28;20063;-78
2023/04/15 08:40:41;;;;;;;5.30;2.60;;;;;;;7.49;100.00;100717.69;6277731;28;20430;-78
2023/04/15 08:43:49;;;;;;;9.50;3.33;;;;;;;7.50;100.00;100717.63;6264382;28;20042;-74
2023/04/15 08:46:54;;;;;;;6.20;2.95;;;;;;;7.52;100.00;100717.56;6260452;28;20048;-78
2023/04/15 08:49:58;;;;;;;5.32;2.92;;;;;;;7.59;100.00;100714.63;6275658;28;20045;-78
2023/04/15 08:52:59;;;;;;;5.47;3.17;;;;;;;7.62;100.00;100713.66;6277564;28;20136;-79
2023/04/15 08:56:04;;;;;;;7.28;3.25;;;;;;;7.64;100.00;100714.44;6277784;28;20052;-78
2023/04/15 08:59:06;;;;;;;9.27;3.50;;;;;;;7.62;100.00;100711.03;6277473;28;20067;-79
2023/04/15 09:02:09;;;;;;;6.53;3.38;;;;;;;7.57;100.00;100711.22;6269540;28;20361;-78
2023/04/15 09:05:11;;;;;;;5.15;3.28;;;;;;;7.55;100.00;100707.81;6269617;28;20048;-78
2023/04/15 09:08:12;;;;;;;4.80;2.60;;;;;;;7.58;100.00;100712.91;6277277;28;20056;-78
2023/04/15 09:11:14;;;;;;;8.27;3.58;;;;;;;7.59;100.00;100706.78;6277280;28;20176;-78
2023/04/15 09:14:15;;;;;;;7.03;3.40;;;;;;;7.57;100.00;100718.22;6266773;28;20049;-75
2023/04/15 09:17:20;;;;;;;6.45;3.28;;;;;;;7.59;100.00;100714.63;6268124;28;20048;-78
2023/04/15 09:20:22;;;;;;;4.88;2.85;;;;;;;7.70;100.00;100729.88;6276484;28;20049;-78
2023/04/15 09:23:24;;;;;;;7.03;3.25;;;;;;;7.73;100.00;100734.97;6277023;28;20053;-78
2023/04/15 09:26:33;;;;;;;7.00;3.08;;;;;;;7.68;100.00;100734.34;6275355;28;20045;-78
2023/04/15 09:29:35;;;;;;;6.53;3.38;;;;;;;7.69;100.00;100733.41;6276681;28;20041;-78
2023/04/15 09:32:49;;;;;;;6.30;3.40;;;;;;;7.70;100.00;100731.63;6276823;28;20048;-78
2023/04/15 09:35:58;;;;;;;6.30;3.58;;;;;;;7.74;100.00;100736.69;6276870;28;20059;-78
2023/04/15 09:39:00;;;;;;;;;;;;;;;7.73;100.00;100731.53;6276860;28;20080;-77
2023/04/15 09:42:06;;;;;;;5.70;3.10;;;;;;;7.80;100.00;100738.19;6276836;28;19921;-78
2023/04/15 09:45:08;;;;;;;6.63;4.00;;;;;;;7.82;100.00;100744.22;6276284;28;20045;-78
2023/04/15 09:48:20;;;;;;;8.15;3.75;;;;;;;7.86;100.00;100744.03;6276351;28;20060;-77
2023/04/15 09:51:34;;;;;;;8.23;4.22;;;;;;;7.84;100.00;100743.22;6276218;28;20353;-78
2023/04/15 09:54:37;;;;;;;10.55;4.05;;;;;;;7.92;100.00;100739.44;6276768;28;20045;-77
2023/04/15 09:57:40;;;;;;;7.63;3.55;;;;;;;7.91;100.00;100741.22;6275632;28;20354;-75
2023/04/15 10:00:41;;;;;;;6.50;4.00;;;;;;;7.94;100.00;100746.28;6270908;28;20178;-75
2023/04/15 10:03:45;;;;;;;9.93;4.90;;;;;;;7.93;100.00;100744.59;6260359;28;20053;-76
2023/04/15 10:06:47;;;;;;;14.57;6.13;;;;;;;7.97;100.00;100751.41;6268181;28;20076;-76
2023/04/15 10:09:49;;;;;;;9.75;4.18;;;;;;;7.97;100.00;100756.66;6266415;28;20060;-74
2023/04/15 10:12:54;;;;;;;17.73;5.60;;;;;;;8.02;100.00;100753.81;6263364;28;20049;-76
2023/04/15 10:15:58;;;;;;;8.90;4.90;;;;;;;8.07;100.00;100759.72;6266374;28;20187;-75
2023/04/15 10:19:02;;;;;;;13.88;5.95;;;;;;;8.12;100.00;100755.97;6265463;28;20053;-76
2023/04/15 10:22:04;;;;;;;12.52;6.10;;;;;;;8.16;100.00;100761.94;6260776;28;20049;-74
2023/04/15 10:25:07;;;;;;;15.55;7.47;;;;;;;8.14;100.00;100767.25;6270939;28;20045;-74
2023/04/15 10:28:09;;;;;;;11.05;5.82;;;;;;;8.21;100.00;100773.06;6275250;28;20179;-75
2023/04/15 10:31:12;;;;;;;10.30;5.85;;;;;;;8.28;100.00;100777.13;6275570;28;20056;-74
2023/04/15 10:34:15;;;;;;;12.38;5.93;;;;;;;8.31;100.00;100777.00;6275679;28;20091;-74
2023/04/15 10:37:21;;;;;;;11.25;5.75;;;;;;;8.30;100.00;100772.66;6274950;28;20056;-75
2023/04/15 10:40:27;;;;;;;11.48;6.00;;;;;;;8.31;100.00;100776.13;6275569;28;20080;-76
2023/04/15 10:43:29;;;;;;;11.27;5.65;;;;;;;8.33;100.00;100776.94;6275027;28;20445;-74
2023/04/15 10:46:37;;;;;;;14.73;6.85;;;;;;;8.33;100.00;100777.78;6275044;28;20052;-74
2023/04/15 10:49:47;;;;;;;12.98;7.18;;;;;;;8.35;100.00;100785.56;6270591;28;20049;-74
2023/04/15 10:52:51;;;;;;;20.42;7.72;;;;;;;8.36;100.00;100785.53;6260074;28;20059;-75
2023/04/15 10:55:52;;;;;;;16.25;6.78;;;;;;;8.38;100.00;100785.47;6264927;28;20346;-75
2023/04/15 10:58:54;;;;;;;14.20;6.80;;;;;;;8.38;100.00;100783.69;6262285;28;20050;-75
2023/04/15 11:02:00;;;;;;;17.02;7.82;;;;;;;8.39;100.00;100782.75;6255861;28;20048;-74
2023/04/15 11:05:03;;;;;;;15.23;7.32;;;;;;;8.39;100.00;100793.25;6265580;28;20045;-74
2023/04/15 11:08:04;;;;;;;16.80;7.72;;;;;;;8.47;100.00;100787.66;6264341;28;20056;-74
2023/04/15 11:11:06;;;;;;;18.27;7.53;;;;;;;8.47;100.00;100787.66;6272406;28;20048;-74
2023/04/15 11:14:15;;;;;;;19.42;8.27;;;;;;;8.51;100.00;100788.41;6269967;28;20045;-74
2023/04/15 11:17:28;;;;;;;15.50;7.80;;;;;;;8.52;100.00;100792.72;6269495;28;20128;-74
2023/04/15 11:20:32;;;;;;;20.98;8.80;;;;;;;8.52;100.00;100801.41;6261543;28;20120;-75
2023/04/15 11:23:36;;;;;;;18.75;8.02;;;;;;;8.60;100.00;100795.84;6266193;28;20045;-75
2023/04/15 11:26:37;;;;;;;22.92;8.65;;;;;;;8.58;100.00;100798.53;6253385;28;20076;-74
2023/04/15 11:29:38;;;;;;;17.55;8.57;;;;;;;8.61;100.00;100808.03;6261108;28;20041;-74
2023/04/15 11:32:41;;;;;;;18.77;9.75;;;;;;;8.62;100.00;100802.69;6260628;28;20427;-74
2023/04/15 11:35:44;;;;;;;18.70;8.45;;;;;;;8.66;100.00;100800.81;6264383;28;20045;-74
2023/04/15 11:38:47;;;;;;;29.45;13.13;;;;;;;8.67;100.00;100804.28;6266273;28;20037;-75
2023/04/15 11:41:48;;;;;;;25.50;9.82;;;;;;;8.69;100.00;100810.31;6276477;28;20056;-74
2023/04/15 11:44:50;;;;;;;20.88;9.27;;;;;;;8.73;100.00;100812.72;6279130;28;20460;-74
2023/04/15 11:47:51;;;;;;;19.98;8.85;;;;;;;8.61;100.00;100808.88;6278154;28;20099;-74
2023/04/15 11:50:55;;;;;;;22.50;9.65;;;;;;;8.62;100.00;100810.56;6272879;28;20060;-74
2023/04/15 11:53:57;;;;;;;27.20;9.93;;;;;;;8.62;100.00;100813.19;6273874;28;20045;-74
2023/04/15 11:57:00;;;;;;;29.48;11.98;;;;;;;8.73;100.00;100817.97;6274332;28;20073;-74
2023/04/15 12:00:03;;;;;;;25.05;10.45;;;;;;;8.77;100.00;100826.53;6269407;28;20049;-75
2023/04/15 12:03:19;;;;;;;32.65;11.68;;;;;;;8.81;100.00;100826.34;6271785;28;20041;-75
2023/04/15 12:06:23;;;;;;;22.45;9.48;;;;;;;8.79;100.00;100825.53;6263405;28;20058;-75
2023/04/15 12:09:24;;;;;;;22.33;10.13;;;;;;;8.83;100.00;100842.81;6278477;28;20053;-74
2023/04/15 12:12:27;;;;;;;31.13;10.30;;;;;;;8.87;100.00;100831.28;6273299;28;20045;-75
2023/04/15 12:15:28;;;;;;;25.92;10.05;;;;;;;8.87;100.00;100846.16;6268761;28;20052;-75
2023/04/15 12:18:30;;;;;;;24.58;8.50;;;;;;;8.85;100.00;100843.59;6278147;28;20052;-79
2023/04/15 12:21:36;;;;;;;31.85;10.55;;;;;;;8.94;100.00;100852.81;6278763;28;20052;-78
2023/04/15 12:24:38;;;;;;;27.40;11.20;;;;;;;8.95;100.00;100845.81;6278531;28;20052;-78
2023/04/15 12:27:40;;;;;;;25.63;10.18;;;;;;;9.00;100.00;100854.34;6277811;28;20041;-78
2023/04/15 12:30:49;;;;;;;29.65;11.27;;;;;;;9.04;100.00;100854.13;6278277;28;20049;-78
2023/04/15 12:33:50;;;;;;;32.72;14.65;;;;;;;9.06;100.00;100856.69;6278281;28;20057;-78
2023/04/15 12:36:53;;;;;;;36.15;12.98;;;;;;;9.03;100.00;100862.91;6278133;28;20455;-78
2023/04/15 12:39:54;;;;;;;45.63;17.05;;;;;;;9.07;100.00;100871.47;6278005;28;20053;-78
2023/04/15 12:42:56;;;;;;;43.70;15.80;;;;;;;9.12;100.00;100880.84;6277950;28;20049;-77
2023/04/15 12:45:57;;;;;;;31.02;13.15;;;;;;;9.14;100.00;100884.25;6277868;28;20082;-78
2023/04/15 12:48:59;;;;;;;29.67;11.50;;;;;;;9.16;100.00;100886.78;6277969;28;20059;-78
2023/04/15 12:52:02;;;;;;;27.55;11.43;;;;;;;9.14;100.00;100905.22;6277723;28;20053;-78
2023/04/15 12:55:04;;;;;;;30.33;11.85;;;;;;;9.14;100.00;100897.34;6277747;28;20453;-78
2023/04/15 12:58:06;;;;;;;31.92;12.07;;;;;;;9.12;100.00;100896.56;6277322;28;20052;-79
2023/04/15 13:01:07;;;;;;;32.70;11.95;;;;;;;9.11;100.00;100899.25;6273951;28;20373;-78
2023/04/15 13:04:09;;;;;;;39.92;13.52;;;;;;;9.14;100.00;100914.88;6268836;28;20052;-78
2023/04/15 13:07:12;;;;;;;34.38;13.45;;;;;;;9.14;100.00;100915.72;6270899;28;20369;-78
2023/04/15 13:10:14;;;;;;;39.53;14.35;;;;;;;9.15;100.00;100913.94;6269632;28;20052;-78
2023/04/15 13:13:16;;;;;;;39.25;14.85;;;;;;;9.19;100.00;100917.28;6276850;28;20056;-78
2023/04/15 13:16:17;;;;;;;34.50;13.45;;;;;;;9.20;100.00;100918.97;6277082;28;20334;-79
2023/04/15 13:19:18;;;;;;;31.92;13.23;;;;;;;9.22;100.00;100919.75;6276741;28;20357;-78
2023/04/15 13:22:21;;;;;;;41.03;15.82;;;;;;;9.25;100.00;100925.72;6277379;28;20060;-78
2023/04/15 13:25:23;;;;;;;47.80;17.98;;;;;;;9.26;100.00;100930.03;6272370;28;20438;-79
2023/04/15 13:28:24;;;;;;;41.85;16.38;;;;;;;9.31;100.00;100919.31;6277109;28;20048;-78
2023/04/15 13:31:26;;;;;;;46.83;17.35;;;;;;;9.34;100.00;100914.81;6277147;28;20056;-78
2023/04/15 13:34:27;;;;;;;50.47;16.13;;;;;;;9.42;100.00;100918.84;6276928;28;20181;-78
2023/04/15 13:37:30;;;;;;;46.33;16.63;;;;;;;9.50;100.00;100920.22;6276558;28;20056;-78
2023/04/15 13:40:32;;;;;;;49.33;18.40;;;;;;;9.55;100.00;100927.88;6276717;28;20472;-78
2023/04/15 13:43:33;;;;;;;46.50;17.77;;;;;;;9.64;100.00;100930.06;6276587;28;20049;-78
2023/04/15 13:46:35;;;;;;;42.28;16.40;;;;;;;9.72;100.00;100937.56;6276366;28;20044;-79
2023/04/15 13:49:36;;;;;;;54.60;17.48;;;;;;;9.75;100.00;100938.28;6276496;28;20342;-77
2023/04/15 13:52:39;;;;;;;42.65;17.23;;;;;;;9.78;100.00;100934.66;6276267;28;20045;-78
2023/04/15 13:55:41;;;;;;;51.42;17.38;;;;;;;9.79;100.00;100945.09;6276421;28;20045;-78
2023/04/15 13:58:42;;;;;;;50.90;17.40;;;;;;;9.85;100.00;100936.06;6276016;28;20052;-77
2023/04/15 14:01:44;;;;;;;48.83;17.73;;;;;;;9.83;100.00;100941.41;6276323;28;20056;-77